sensor_id;sensor_type;location;lat;lon;timestamp;pressure;altitude;pressure_sealevel;temperature;humidity
48668;BME280;34453;52.198;5.004;2023-06-19T00:01:55;100819.81;;;21.85;100.00
48668;BME280;34453;52.198;5.004;2023-06-19T00:04:21;100823.25;;;21.92;100.00
48668;BME280;34453;52.198;5.004;2023-06-19T00:06:46;100813.59;;;21.98;100.00
48668;BME280;34453;52.198;5.004;2023-06-19T00:09:11;100830.31;;;22.05;100.00
48668;BME280;34453;52.198;5.004;2023-06-19T00:11:37;100830.22;;;22.18;100.00
48668;BME280;34453;52.198;5.004;2023-06-19T00:14:02;100832.19;;;22.29;100.00
48668;BME280;34453;52.198;5.004;2023-06-19T00:16:28;100829.31;;;22.31;100.00
48668;BME280;34453;52.198;5.004;2023-06-19T00:18:53;100836.66;;;22.35;100.00
48668;BME280;34453;52.198;5.004;2023-06-19T00:21:25;100846.13;;;22.31;100.00
48668;BME280;34453;52.198;5.004;2023-06-19T00:23:51;100828.94;;;22.27;100.00
48668;BME280;34453;52.198;5.004;2023-06-19T00:26:17;100822.81;;;22.20;100.00
48668;BME280;34453;52.198;5.004;2023-06-19T00:28:44;100825.38;;;22.08;100.00
48668;BME280;34453;52.198;5.004;2023-06-19T00:31:11;100822.19;;;22.00;100.00
48668;BME280;34453;52.198;5.004;2023-06-19T00:33:39;100838.59;;;21.97;100.00
48668;BME280;34453;52.198;5.004;2023-06-19T00:36:12;100832.53;;;21.83;100.00
48668;BME280;34453;52.198;5.004;2023-06-19T00:38:38;100830.16;;;21.75;100.00
48668;BME280;34453;52.198;5.004;2023-06-19T00:41:04;100831.81;;;21.69;100.00
48668;BME280;34453;52.198;5.004;2023-06-19T00:43:30;100838.44;;;21.60;100.00
48668;BME280;34453;52.198;5.004;2023-06-19T00:45:57;100841.94;;;21.53;100.00
48668;BME280;34453;52.198;5.004;2023-06-19T00:48:23;100839.91;;;21.49;100.00
48668;BME280;34453;52.198;5.004;2023-06-19T00:50:50;100832.38;;;21.39;100.00
48668;BME280;34453;52.198;5.004;2023-06-19T00:53:15;100843.66;;;21.35;100.00
48668;BME280;34453;52.198;5.004;2023-06-19T00:55:43;100836.88;;;21.32;100.00
48668;BME280;34453;52.198;5.004;2023-06-19T00:58:09;100834.50;;;21.24;100.00
48668;BME280;34453;52.198;5.004;2023-06-19T01:00:35;100836.13;;;21.18;100.00
48668;BME280;34453;52.198;5.004;2023-06-19T01:03:00;100846.41;;;21.15;100.00
48668;BME280;34453;52.198;5.004;2023-06-19T01:05:26;100857.28;;;21.06;100.00
48668;BME280;34453;52.198;5.004;2023-06-19T01:08:03;100862.81;;;20.98;100.00
48668;BME280;34453;52.198;5.004;2023-06-19T01:10:34;100862.63;;;20.93;100.00
48668;BME280;34453;52.198;5.004;2023-06-19T01:13:07;100868.56;;;20.88;100.00
48668;BME280;34453;52.198;5.004;2023-06-19T01:15:34;100866.53;;;20.84;100.00
48668;BME280;34453;52.198;5.004;2023-06-19T01:18:00;100872.50;;;20.73;100.00
48668;BME280;34453;52.198;5.004;2023-06-19T01:20:27;100863.72;;;20.65;100.00
48668;BME280;34453;52.198;5.004;2023-06-19T01:22:53;100883.34;;;20.64;100.00
48668;BME280;34453;52.198;5.004;2023-06-19T01:25:24;100881.28;;;20.53;100.00
48668;BME280;34453;52.198;5.004;2023-06-19T01:27:50;100884.56;;;20.48;100.00
48668;BME280;34453;52.198;5.004;2023-06-19T01:30:16;100883.13;;;20.46;100.00
48668;BME280;34453;52.198;5.004;2023-06-19T01:32:50;100883.50;;;20.43;100.00
48668;BME280;34453;52.198;5.004;2023-06-19T01:35:21;100883.31;;;20.38;100.00
48668;BME280;34453;52.198;5.004;2023-06-19T01:37:47;100875.16;;;20.33;100.00
48668;BME280;34453;52.198;5.004;2023-06-19T01:40:14;100888.63;;;20.31;100.00
48668;BME280;34453;52.198;5.004;2023-06-19T01:42:41;100897.84;;;20.28;100.00
48668;BME280;34453;52.198;5.004;2023-06-19T01:45:08;100887.81;;;20.24;100.00
48668;BME280;34453;52.198;5.004;2023-06-19T01:47:33;100890.66;;;20.22;100.00
48668;BME280;34453;52.198;5.004;2023-06-19T01:49:59;100898.03;;;20.20;100.00
48668;BME280;34453;52.198;5.004;2023-06-19T01:52:25;100893.53;;;20.21;100.00
48668;BME280;34453;52.198;5.004;2023-06-19T01:54:51;100903.34;;;20.20;100.00
48668;BME280;34453;52.198;5.004;2023-06-19T01:57:17;100906.78;;;20.14;100.00
48668;BME280;34453;52.198;5.004;2023-06-19T01:59:43;100903.56;;;20.12;100.00
48668;BME280;34453;52.198;5.004;2023-06-19T02:02:08;100897.19;;;20.06;100.00
48668;BME280;34453;52.198;5.004;2023-06-19T02:04:34;100899.03;;;20.06;100.00
48668;BME280;34453;52.198;5.004;2023-06-19T02:06:59;100906.59;;;20.09;100.00
48668;BME280;34453;52.198;5.004;2023-06-19T02:09:25;100898.44;;;20.04;100.00
48668;BME280;34453;52.198;5.004;2023-06-19T02:11:50;100917.41;;;20.01;100.00
48668;BME280;34453;52.198;5.004;2023-06-19T02:14:16;100904.13;;;20.01;100.00
48668;BME280;34453;52.198;5.004;2023-06-19T02:16:42;100910.66;;;20.05;100.00
48668;BME280;34453;52.198;5.004;2023-06-19T02:19:11;100916.81;;;19.99;100.00
48668;BME280;34453;52.198;5.004;2023-06-19T02:21:37;100912.06;;;19.94;100.00
48668;BME280;34453;52.198;5.004;2023-06-19T02:24:02;100908.22;;;19.97;100.00
48668;BME280;34453;52.198;5.004;2023-06-19T02:26:28;100914.13;;;19.92;100.00
48668;BME280;34453;52.198;5.004;2023-06-19T02:28:55;100912.06;;;19.94;100.00
48668;BME280;34453;52.198;5.004;2023-06-19T02:31:21;100919.22;;;19.94;100.00
48668;BME280;34453;52.198;5.004;2023-06-19T02:33:47;100911.06;;;19.95;100.00
48668;BME280;34453;52.198;5.004;2023-06-19T02:36:13;100916.38;;;19.88;100.00
48668;BME280;34453;52.198;5.004;2023-06-19T02:38:38;100910.88;;;19.97;100.00
48668;BME280;34453;52.198;5.004;2023-06-19T02:41:04;100919.22;;;19.94;100.00
48668;BME280;34453;52.198;5.004;2023-06-19T02:43:29;100913.09;;;19.93;100.00
48668;BME280;34453;52.198;5.004;2023-06-19T02:45:55;100926.56;;;19.92;100.00
48668;BME280;34453;52.198;5.004;2023-06-19T02:48:20;100929.22;;;19.92;100.00
48668;BME280;34453;52.198;5.004;2023-06-19T02:50:48;100927.19;;;19.87;100.00
48668;BME280;34453;52.198;5.004;2023-06-19T02:53:13;100931.88;;;19.92;100.00
48668;BME280;34453;52.198;5.004;2023-06-19T02:55:39;100934.53;;;19.92;100.00
48668;BME280;34453;52.198;5.004;2023-06-19T02:58:04;100923.72;;;19.93;100.00
48668;BME280;34453;52.198;5.004;2023-06-19T03:00:30;100933.28;;;19.87;100.00
48668;BME280;34453;52.198;5.004;2023-06-19T03:02:55;100939.03;;;19.91;100.00
48668;BME280;34453;52.198;5.004;2023-06-19T03:05:21;100940.44;;;19.87;100.00
48668;BME280;34453;52.198;5.004;2023-06-19T03:07:46;100948.84;;;19.91;100.00
48668;BME280;34453;52.198;5.004;2023-06-19T03:10:12;100948.63;;;19.79;100.00
48668;BME280;34453;52.198;5.004;2023-06-19T03:12:37;100957.16;;;19.74;100.00
48668;BME280;34453;52.198;5.004;2023-06-19T03:15:03;100961.25;;;19.70;100.00
48668;BME280;34453;52.198;5.004;2023-06-19T03:17:28;100969.81;;;19.72;100.00
48668;BME280;34453;52.198;5.004;2023-06-19T03:19:54;100963.47;;;19.73;100.00
48668;BME280;34453;52.198;5.004;2023-06-19T03:22:20;100980.44;;;19.72;100.00
48668;BME280;34453;52.198;5.004;2023-06-19T03:24:46;100971.00;;;19.70;100.00
48668;BME280;34453;52.198;5.004;2023-06-19T03:27:11;100986.50;;;19.66;100.00
48668;BME280;34453;52.198;5.004;2023-06-19T03:29:37;100984.03;;;19.64;100.00
48668;BME280;34453;52.198;5.004;2023-06-19T03:32:02;100983.22;;;19.64;100.00
48668;BME280;34453;52.198;5.004;2023-06-19T03:34:28;101004.00;;;19.60;100.00
48668;BME280;34453;52.198;5.004;2023-06-19T03:36:53;101001.94;;;19.56;100.00
48668;BME280;34453;52.198;5.004;2023-06-19T03:39:19;100998.91;;;19.52;100.00
48668;BME280;34453;52.198;5.004;2023-06-19T03:41:44;101012.75;;;19.48;100.00
48668;BME280;34453;52.198;5.004;2023-06-19T03:44:10;101029.00;;;19.38;100.00
48668;BME280;34453;52.198;5.004;2023-06-19T03:46:35;101043.50;;;19.14;100.00
48668;BME280;34453;52.198;5.004;2023-06-19T03:49:00;101064.44;;;19.02;100.00
48668;BME280;34453;52.198;5.004;2023-06-19T03:51:28;101080.88;;;18.91;100.00
48668;BME280;34453;52.198;5.004;2023-06-19T03:53:54;101093.88;;;18.86;100.00
48668;BME280;34453;52.198;5.004;2023-06-19T03:56:19;101106.66;;;18.82;100.00
48668;BME280;34453;52.198;5.004;2023-06-19T03:58:45;101111.59;;;18.85;100.00
48668;BME280;34453;52.198;5.004;2023-06-19T04:01:10;101129.16;;;18.86;100.00
48668;BME280;34453;52.198;5.004;2023-06-19T04:03:36;101126.50;;;18.86;100.00
48668;BME280;34453;52.198;5.004;2023-06-19T04:06:01;101128.13;;;18.87;100.00
48668;BME280;34453;52.198;5.004;2023-06-19T04:08:26;101132.84;;;18.92;100.00
48668;BME280;34453;52.198;5.004;2023-06-19T04:10:52;101130.03;;;18.93;100.00
48668;BME280;34453;52.198;5.004;2023-06-19T04:13:17;101128.41;;;18.92;100.00
48668;BME280;34453;52.198;5.004;2023-06-19T04:15:43;101138.72;;;18.87;100.00
48668;BME280;34453;52.198;5.004;2023-06-19T04:18:10;101131.16;;;18.84;100.00
48668;BME280;34453;52.198;5.004;2023-06-19T04:20:35;101134.28;;;18.88;100.00
48668;BME280;34453;52.198;5.004;2023-06-19T04:23:00;101136.47;;;18.84;100.00
48668;BME280;34453;52.198;5.004;2023-06-19T04:25:26;101139.13;;;18.84;100.00
48668;BME280;34453;52.198;5.004;2023-06-19T04:27:51;101141.38;;;18.87;100.00
48668;BME280;34453;52.198;5.004;2023-06-19T04:30:17;101147.88;;;18.84;100.00
48668;BME280;34453;52.198;5.004;2023-06-19T04:32:42;101139.56;;;18.88;100.00
48668;BME280;34453;52.198;5.004;2023-06-19T04:35:09;101145.06;;;18.86;100.00
48668;BME280;34453;52.198;5.004;2023-06-19T04:37:34;101136.06;;;18.87;100.00
48668;BME280;34453;52.198;5.004;2023-06-19T04:40:00;101139.75;;;18.86;100.00
48668;BME280;34453;52.198;5.004;2023-06-19T04:42:26;101143.78;;;18.82;100.00
48668;BME280;34453;52.198;5.004;2023-06-19T04:44:52;101146.16;;;18.77;100.00
48668;BME280;34453;52.198;5.004;2023-06-19T04:47:19;101149.47;;;18.79;100.00
48668;BME280;34453;52.198;5.004;2023-06-19T04:49:46;101154.47;;;18.74;100.00
48668;BME280;34453;52.198;5.004;2023-06-19T04:52:11;101139.13;;;18.69;100.00
48668;BME280;34453;52.198;5.004;2023-06-19T04:54:36;101135.47;;;18.70;100.00
48668;BME280;34453;52.198;5.004;2023-06-19T04:57:02;101150.81;;;18.75;100.00
48668;BME280;34453;52.198;5.004;2023-06-19T04:59:28;101144.88;;;18.73;100.00
48668;BME280;34453;52.198;5.004;2023-06-19T05:01:55;101137.34;;;18.76;100.00
48668;BME280;34453;52.198;5.004;2023-06-19T05:04:20;101147.00;;;18.77;100.00
48668;BME280;34453;52.198;5.004;2023-06-19T05:06:47;101153.09;;;18.78;100.00
48668;BME280;34453;52.198;5.004;2023-06-19T05:09:12;101142.06;;;18.74;100.00
48668;BME280;34453;52.198;5.004;2023-06-19T05:11:38;101138.47;;;18.82;100.00
48668;BME280;34453;52.198;5.004;2023-06-19T05:14:03;101152.75;;;18.81;100.00
48668;BME280;34453;52.198;5.004;2023-06-19T05:16:29;101158.22;;;18.79;100.00
48668;BME280;34453;52.198;5.004;2023-06-19T05:18:54;101158.13;;;18.73;100.00
48668;BME280;34453;52.198;5.004;2023-06-19T05:21:19;101159.75;;;18.74;100.00
48668;BME280;34453;52.198;5.004;2023-06-19T05:23:45;101168.81;;;18.64;100.00
48668;BME280;34453;52.198;5.004;2023-06-19T05:26:16;101174.13;;;18.64;100.00
48668;BME280;34453;52.198;5.004;2023-06-19T05:28:41;101175.16;;;18.63;100.00
48668;BME280;34453;52.198;5.004;2023-06-19T05:31:06;101173.69;;;18.61;100.00
48668;BME280;34453;52.198;5.004;2023-06-19T05:33:32;101178.44;;;18.66;100.00
48668;BME280;34453;52.198;5.004;2023-06-19T05:35:57;101173.88;;;18.59;100.00
48668;BME280;34453;52.198;5.004;2023-06-19T05:38:23;101172.78;;;18.54;100.00
48668;BME280;34453;52.198;5.004;2023-06-19T05:40:51;101177.16;;;18.61;100.00
48668;BME280;34453;52.198;5.004;2023-06-19T05:43:17;101177.41;;;18.67;100.00
48668;BME280;34453;52.198;5.004;2023-06-19T05:45:46;101182.63;;;18.60;100.00
48668;BME280;34453;52.198;5.004;2023-06-19T05:48:11;101179.34;;;18.58;100.00
48668;BME280;34453;52.198;5.004;2023-06-19T05:50:37;101177.09;;;18.55;100.00
48668;BME280;34453;52.198;5.004;2023-06-19T05:53:02;101180.56;;;18.55;100.00
48668;BME280;34453;52.198;5.004;2023-06-19T05:55:28;101198.72;;;18.58;100.00
48668;BME280;34453;52.198;5.004;2023-06-19T05:57:55;101193.97;;;18.54;100.00
48668;BME280;34453;52.198;5.004;2023-06-19T06:00:20;101201.75;;;18.55;100.00
48668;BME280;34453;52.198;5.004;2023-06-19T06:02:46;101205.94;;;18.64;100.00
48668;BME280;34453;52.198;5.004;2023-06-19T06:05:11;101207.31;;;18.60;100.00
48668;BME280;34453;52.198;5.004;2023-06-19T06:07:37;101217.09;;;18.60;100.00
48668;BME280;34453;52.198;5.004;2023-06-19T06:10:03;101212.44;;;18.62;100.00
48668;BME280;34453;52.198;5.004;2023-06-19T06:12:28;101217.81;;;18.69;100.00
48668;BME280;34453;52.198;5.004;2023-06-19T06:14:53;101226.78;;;18.68;100.00
48668;BME280;34453;52.198;5.004;2023-06-19T06:17:19;101223.00;;;18.77;100.00
48668;BME280;34453;52.198;5.004;2023-06-19T06:19:44;101232.63;;;18.78;100.00
48668;BME280;34453;52.198;5.004;2023-06-19T06:22:10;101237.72;;;18.64;100.00
48668;BME280;34453;52.198;5.004;2023-06-19T06:24:35;101246.69;;;18.49;100.00
48668;BME280;34453;52.198;5.004;2023-06-19T06:27:00;101247.59;;;18.56;100.00
48668;BME280;34453;52.198;5.004;2023-06-19T06:29:26;101265.72;;;18.52;100.00
48668;BME280;34453;52.198;5.004;2023-06-19T06:31:51;101275.28;;;18.38;100.00
48668;BME280;34453;52.198;5.004;2023-06-19T06:34:18;101256.56;;;18.40;100.00
48668;BME280;34453;52.198;5.004;2023-06-19T06:36:44;101265.31;;;18.40;100.00
48668;BME280;34453;52.198;5.004;2023-06-19T06:39:10;101261.69;;;18.41;100.00
48668;BME280;34453;52.198;5.004;2023-06-19T06:41:36;101261.59;;;18.35;100.00
48668;BME280;34453;52.198;5.004;2023-06-19T06:44:01;101263.03;;;18.22;100.00
48668;BME280;34453;52.198;5.004;2023-06-19T06:46:27;101277.72;;;18.25;100.00
48668;BME280;34453;52.198;5.004;2023-06-19T06:48:52;101282.53;;;18.07;100.00
48668;BME280;34453;52.198;5.004;2023-06-19T06:51:18;101283.78;;;17.96;100.00
48668;BME280;34453;52.198;5.004;2023-06-19T06:53:43;101293.56;;;17.95;100.00
48668;BME280;34453;52.198;5.004;2023-06-19T06:56:09;101294.38;;;17.96;100.00
48668;BME280;34453;52.198;5.004;2023-06-19T06:58:34;101296.09;;;17.89;100.00
48668;BME280;34453;52.198;5.004;2023-06-19T07:00:59;101302.69;;;17.93;100.00
48668;BME280;34453;52.198;5.004;2023-06-19T07:03:25;101289.50;;;17.85;100.00
48668;BME280;34453;52.198;5.004;2023-06-19T07:05:50;101306.31;;;17.92;100.00
48668;BME280;34453;52.198;5.004;2023-06-19T07:08:16;101299.41;;;17.91;100.00
48668;BME280;34453;52.198;5.004;2023-06-19T07:10:41;101306.31;;;17.92;100.00
48668;BME280;34453;52.198;5.004;2023-06-19T07:13:07;101307.28;;;17.99;100.00
48668;BME280;34453;52.198;5.004;2023-06-19T07:15:32;101319.28;;;18.10;100.00
48668;BME280;34453;52.198;5.004;2023-06-19T07:17:57;101319.00;;;18.19;100.00
48668;BME280;34453;52.198;5.004;2023-06-19T07:20:23;101314.44;;;18.13;100.00
48668;BME280;34453;52.198;5.004;2023-06-19T07:22:51;101328.97;;;18.17;100.00
48668;BME280;34453;52.198;5.004;2023-06-19T07:25:17;101331.22;;;18.20;100.00
48668;BME280;34453;52.198;5.004;2023-06-19T07:27:43;101329.72;;;18.26;100.00
48668;BME280;34453;52.198;5.004;2023-06-19T07:30:09;101331.09;;;18.37;100.00
48668;BME280;34453;52.198;5.004;2023-06-19T07:32:36;101313.84;;;18.41;100.00
48668;BME280;34453;52.198;5.004;2023-06-19T07:35:02;101342.13;;;18.40;100.00
48668;BME280;34453;52.198;5.004;2023-06-19T07:37:27;101318.03;;;18.35;100.00
48668;BME280;34453;52.198;5.004;2023-06-19T07:39:52;101323.06;;;18.45;100.00
48668;BME280;34453;52.198;5.004;2023-06-19T07:42:19;101333.84;;;18.43;100.00
48668;BME280;34453;52.198;5.004;2023-06-19T07:44:45;101331.31;;;18.50;100.00
48668;BME280;34453;52.198;5.004;2023-06-19T07:47:11;101337.13;;;18.60;100.00
48668;BME280;34453;52.198;5.004;2023-06-19T07:49:37;101338.69;;;18.70;100.00
48668;BME280;34453;52.198;5.004;2023-06-19T07:52:03;101333.03;;;18.73;100.00
48668;BME280;34453;52.198;5.004;2023-06-19T07:54:29;101324.41;;;18.79;100.00
48668;BME280;34453;52.198;5.004;2023-06-19T07:56:55;101328.94;;;18.85;100.00
48668;BME280;34453;52.198;5.004;2023-06-19T07:59:21;101326.28;;;18.70;100.00
48668;BME280;34453;52.198;5.004;2023-06-19T08:01:46;101330.03;;;18.76;100.00
48668;BME280;34453;52.198;5.004;2023-06-19T08:04:12;101329.31;;;18.97;100.00
48668;BME280;34453;52.198;5.004;2023-06-19T08:06:37;101322.53;;;19.09;100.00
48668;BME280;34453;52.198;5.004;2023-06-19T08:09:03;101337.28;;;19.33;100.00
48668;BME280;34453;52.198;5.004;2023-06-19T08:11:29;101330.16;;;19.34;100.00
48668;BME280;34453;52.198;5.004;2023-06-19T08:13:54;101328.81;;;19.23;100.00
48668;BME280;34453;52.198;5.004;2023-06-19T08:16:20;101326.44;;;19.28;100.00
48668;BME280;34453;52.198;5.004;2023-06-19T08:18:45;101324.91;;;19.19;100.00
48668;BME280;34453;52.198;5.004;2023-06-19T08:21:11;101327.34;;;19.20;100.00
48668;BME280;34453;52.198;5.004;2023-06-19T08:23:37;101348.81;;;19.40;100.00
48668;BME280;34453;52.198;5.004;2023-06-19T08:26:04;101329.22;;;19.41;100.00
48668;BME280;34453;52.198;5.004;2023-06-19T08:28:31;101335.88;;;19.52;100.00
48668;BME280;34453;52.198;5.004;2023-06-19T08:30:57;101337.56;;;19.75;100.00
48668;BME280;34453;52.198;5.004;2023-06-19T08:33:23;101338.81;;;20.00;100.00
48668;BME280;34453;52.198;5.004;2023-06-19T08:35:48;101338.75;;;19.94;100.00
48668;BME280;34453;52.198;5.004;2023-06-19T08:38:13;101346.25;;;20.12;100.00
48668;BME280;34453;52.198;5.004;2023-06-19T08:40:41;101359.88;;;20.02;100.00
48668;BME280;34453;52.198;5.004;2023-06-19T08:43:07;101371.94;;;20.04;100.00
48668;BME280;34453;52.198;5.004;2023-06-19T08:45:33;101350.19;;;19.94;100.00
48668;BME280;34453;52.198;5.004;2023-06-19T08:48:02;101365.56;;;19.99;100.00
48668;BME280;34453;52.198;5.004;2023-06-19T08:50:33;101364.38;;;20.29;100.00
48668;BME280;34453;52.198;5.004;2023-06-19T08:52:59;101359.16;;;20.43;100.00
48668;BME280;34453;52.198;5.004;2023-06-19T08:55:25;101367.88;;;20.58;100.00
48668;BME280;34453;52.198;5.004;2023-06-19T08:57:52;101359.63;;;20.75;100.00
48668;BME280;34453;52.198;5.004;2023-06-19T09:00:25;101362.06;;;20.76;100.00
48668;BME280;34453;52.198;5.004;2023-06-19T09:02:51;101378.78;;;20.42;100.00
48668;BME280;34453;52.198;5.004;2023-06-19T09:05:18;101363.25;;;20.39;100.00
48668;BME280;34453;52.198;5.004;2023-06-19T09:07:46;101355.56;;;20.50;100.00
48668;BME280;34453;52.198;5.004;2023-06-19T09:10:19;101369.28;;;20.26;100.00
48668;BME280;34453;52.198;5.004;2023-06-19T09:12:56;101362.34;;;20.32;100.00
48668;BME280;34453;52.198;5.004;2023-06-19T09:15:22;101380.25;;;20.23;100.00
48668;BME280;34453;52.198;5.004;2023-06-19T09:18:00;101373.81;;;20.32;100.00
48668;BME280;34453;52.198;5.004;2023-06-19T09:20:29;101380.22;;;20.16;100.00
48668;BME280;34453;52.198;5.004;2023-06-19T09:22:58;101382.34;;;20.27;100.00
48668;BME280;34453;52.198;5.004;2023-06-19T09:25:23;101391.41;;;20.33;100.00
48668;BME280;34453;52.198;5.004;2023-06-19T09:27:50;101400.44;;;20.39;100.00
48668;BME280;34453;52.198;5.004;2023-06-19T09:30:15;101389.72;;;20.25;100.00
48668;BME280;34453;52.198;5.004;2023-06-19T09:32:41;101406.13;;;20.36;100.00
48668;BME280;34453;52.198;5.004;2023-06-19T09:35:07;101410.50;;;20.43;100.00
48668;BME280;34453;52.198;5.004;2023-06-19T09:37:32;101413.97;;;20.44;100.00
48668;BME280;34453;52.198;5.004;2023-06-19T09:40:00;101417.63;;;20.43;100.00
48668;BME280;34453;52.198;5.004;2023-06-19T09:42:30;101414.78;;;20.44;100.00
48668;BME280;34453;52.198;5.004;2023-06-19T09:44:59;101419.06;;;20.39;100.00
48668;BME280;34453;52.198;5.004;2023-06-19T09:47:31;101420.06;;;20.38;100.00
48668;BME280;34453;52.198;5.004;2023-06-19T09:49:57;101415.13;;;20.35;100.00
48668;BME280;34453;52.198;5.004;2023-06-19T09:52:23;101421.41;;;20.55;100.00
48668;BME280;34453;52.198;5.004;2023-06-19T09:54:53;101416.88;;;20.49;100.00
48668;BME280;34453;52.198;5.004;2023-06-19T09:57:19;101431.41;;;20.53;100.00
48668;BME280;34453;52.198;5.004;2023-06-19T09:59:47;101434.47;;;20.50;100.00
48668;BME280;34453;52.198;5.004;2023-06-19T10:02:16;101431.78;;;20.72;100.00
48668;BME280;34453;52.198;5.004;2023-06-19T10:04:50;101431.06;;;20.84;100.00
48668;BME280;34453;52.198;5.004;2023-06-19T10:07:20;101445.38;;;20.83;100.00
48668;BME280;34453;52.198;5.004;2023-06-19T10:09:56;101455.25;;;20.61;100.00
48668;BME280;34453;52.198;5.004;2023-06-19T10:12:22;101449.28;;;20.38;100.00
48668;BME280;34453;52.198;5.004;2023-06-19T10:14:47;101445.00;;;20.37;100.00
48668;BME280;34453;52.198;5.004;2023-06-19T10:17:18;101447.44;;;20.38;100.00
48668;BME280;34453;52.198;5.004;2023-06-19T10:19:51;101450.25;;;20.80;100.00
48668;BME280;34453;52.198;5.004;2023-06-19T10:22:20;101445.22;;;20.91;100.00
48668;BME280;34453;52.198;5.004;2023-06-19T10:24:50;101433.91;;;20.83;100.00
48668;BME280;34453;52.198;5.004;2023-06-19T10:27:20;101442.03;;;21.09;100.00
48668;BME280;34453;52.198;5.004;2023-06-19T10:29:52;101433.75;;;21.26;100.00
48668;BME280;34453;52.198;5.004;2023-06-19T10:32:19;101433.81;;;21.39;100.00
48668;BME280;34453;52.198;5.004;2023-06-19T10:34:48;101430.91;;;21.34;100.00
48668;BME280;34453;52.198;5.004;2023-06-19T10:37:16;101439.75;;;21.35;100.00
48668;BME280;34453;52.198;5.004;2023-06-19T10:39:42;101432.69;;;21.55;100.00
48668;BME280;34453;52.198;5.004;2023-06-19T10:42:09;101429.47;;;21.73;100.00
48668;BME280;34453;52.198;5.004;2023-06-19T10:44:35;101436.66;;;21.86;100.00
48668;BME280;34453;52.198;5.004;2023-06-19T10:47:04;101438.06;;;21.75;100.00
48668;BME280;34453;52.198;5.004;2023-06-19T10:49:29;101439.41;;;21.44;100.00
48668;BME280;34453;52.198;5.004;2023-06-19T10:51:55;101429.00;;;21.63;100.00
48668;BME280;34453;52.198;5.004;2023-06-19T10:54:24;101431.38;;;21.99;100.00
48668;BME280;34453;52.198;5.004;2023-06-19T10:56:50;101420.06;;;21.84;100.00
48668;BME280;34453;52.198;5.004;2023-06-19T10:59:16;101423.16;;;22.07;100.00
48668;BME280;34453;52.198;5.004;2023-06-19T11:01:48;101418.47;;;22.16;100.00
48668;BME280;34453;52.198;5.004;2023-06-19T11:04:16;101420.94;;;22.18;100.00
48668;BME280;34453;52.198;5.004;2023-06-19T11:06:43;101411.91;;;22.12;100.00
48668;BME280;34453;52.198;5.004;2023-06-19T11:09:10;101418.84;;;21.86;100.00
48668;BME280;34453;52.198;5.004;2023-06-19T11:11:47;101419.66;;;21.87;100.00
48668;BME280;34453;52.198;5.004;2023-06-19T11:14:14;101416.19;;;21.86;100.00
48668;BME280;34453;52.198;5.004;2023-06-19T11:16:42;101414.34;;;22.00;100.00
48668;BME280;34453;52.198;5.004;2023-06-19T11:19:09;101424.25;;;22.46;100.00
48668;BME280;34453;52.198;5.004;2023-06-19T11:21:37;101411.72;;;22.53;100.00
48668;BME280;34453;52.198;5.004;2023-06-19T11:24:12;101417.28;;;22.45;100.00
48668;BME280;34453;52.198;5.004;2023-06-19T11:26:39;101410.28;;;22.58;100.00
48668;BME280;34453;52.198;5.004;2023-06-19T11:29:30;101397.94;;;22.76;100.00
48668;BME280;34453;52.198;5.004;2023-06-19T11:32:12;101409.25;;;22.65;100.00
48668;BME280;34453;52.198;5.004;2023-06-19T11:34:37;101417.28;;;22.32;100.00
48668;BME280;34453;52.198;5.004;2023-06-19T11:37:13;101413.59;;;22.53;100.00
48668;BME280;34453;52.198;5.004;2023-06-19T11:39:40;101413.34;;;22.88;100.00
48668;BME280;34453;52.198;5.004;2023-06-19T11:42:06;101403.69;;;23.00;100.00
48668;BME280;34453;52.198;5.004;2023-06-19T11:44:31;101412.97;;;22.58;100.00
48668;BME280;34453;52.198;5.004;2023-06-19T11:46:57;101421.78;;;22.45;100.00
48668;BME280;34453;52.198;5.004;2023-06-19T11:49:25;101426.09;;;22.59;100.00
48668;BME280;34453;52.198;5.004;2023-06-19T11:51:51;101430.94;;;22.95;100.00
48668;BME280;34453;52.198;5.004;2023-06-19T11:54:17;101420.59;;;23.39;100.00
48668;BME280;34453;52.198;5.004;2023-06-19T11:56:46;101428.00;;;23.37;100.00
48668;BME280;34453;52.198;5.004;2023-06-19T11:59:13;101425.63;;;22.89;100.00
48668;BME280;34453;52.198;5.004;2023-06-19T12:01:39;101419.03;;;22.98;100.00
48668;BME280;34453;52.198;5.004;2023-06-19T12:04:05;101407.34;;;22.99;100.00
48668;BME280;34453;52.198;5.004;2023-06-19T12:06:31;101429.91;;;22.96;100.00
48668;BME280;34453;52.198;5.004;2023-06-19T12:08:57;101416.34;;;23.18;100.00
48668;BME280;34453;52.198;5.004;2023-06-19T12:11:23;101420.81;;;23.76;100.00
48668;BME280;34453;52.198;5.004;2023-06-19T12:13:50;101426.78;;;23.78;100.00
48668;BME280;34453;52.198;5.004;2023-06-19T12:16:15;101415.84;;;23.86;100.00
48668;BME280;34453;52.198;5.004;2023-06-19T12:18:41;101420.06;;;24.00;100.00
48668;BME280;34453;52.198;5.004;2023-06-19T12:21:06;101412.88;;;24.26;100.00
48668;BME280;34453;52.198;5.004;2023-06-19T12:23:32;101427.75;;;24.40;100.00
48668;BME280;34453;52.198;5.004;2023-06-19T12:25:58;101416.50;;;23.82;100.00
48668;BME280;34453;52.198;5.004;2023-06-19T12:28:23;101418.63;;;23.59;100.00
48668;BME280;34453;52.198;5.004;2023-06-19T12:30:50;101425.25;;;24.20;100.00
48668;BME280;34453;52.198;5.004;2023-06-19T12:33:20;101421.13;;;24.25;100.00
48668;BME280;34453;52.198;5.004;2023-06-19T12:35:46;101425.53;;;23.81;100.00
48668;BME280;34453;52.198;5.004;2023-06-19T12:38:12;101420.34;;;23.92;100.00